Impacts TAF Board INFO
FOR SITUATIONAL AWARENESS. NOT TO BE USED FOR FLIGHT PLANNING PURPOSES.
IDs:

KEYW - Key West Intl, FL, US

Issued at 0531 UTC 24 Jun 2018
Updated at 0715 UTC 24 Jun 2018
Potential Impact None Slight Moderate High
Time0653Z 24/08Z 24/09Z 24/10Z 24/11Z 24/12Z 24/13Z 24/14Z 24/15Z 24/16Z 24/17Z 24/18Z 24/19Z 24/20Z>>
Type OBS PRVL PRVL PRVL PRVL PRVL PRVL PRVL PRVL PRVL PRVL PRVL
  [TEMP]  
PRVL
  [TEMP]  
PRVL
  [TEMP]  
VIS 10 >6 >6 >6 >6 >6 >6 >6 >6 >6 >6 >6
  [2]  
>6
  [2]  
>6
  [2]  
CIG -- -- -- -- -- -- -- -- -- -- -- --
  [20]  
--
  [20]  
--
  [20]  
Cover CLR SCT SCT SCT SCT SCT SCT SCT SCT SCT SCT SCT
  [OVC]  
SCT
  [OVC]  
SCT
  [OVC]  
FltCat VFR VFR VFR VFR VFR VFR VFR VFR VFR VFR VFR VFR
  [IFR]  
VFR
  [IFR]  
VFR
  [IFR]  
WX -- -- -- -- -- -- -- -- -- VCSH VCSH VCSH
  [TSRA]  
VCSH
  [TSRA]  
VCSH
  [TSRA]  
WDir 140 90 90 90 90 90 90 90 90 130 130 130
[VRB]
130
[VRB]
130
[VRB]
WSpd 5 5 5 5 5 5 5 5 5 8 8 8
  [12]  
8
  [12]  
8
  [12]  
WGst -- -- -- -- -- -- -- -- -- -- -- --
  [20]  
--
  [20]  
--
  [20]  

Raw TAF
KEYW 240531Z 2406/2506 10004KT P6SM SCT025 SCT100
  TEMPO 2406/2408 5SM SHRA BKN025
  FM240800 09005KT P6SM SCT025
  FM241600 13008KT P6SM VCSH SCT025 SCT100
  TEMPO 2418/2421 VRB12G20KT 2SM TSRA BKN020CB OVC030


Raw METAR
KEYW 240653Z AUTO 14005KT 10SM CLR 28/24 A3000 RMK AO2 SLP159 T02830244 $
KEYW 240553Z AUTO 08003KT 10SM CLR 28/24 A3002 RMK AO2 SLP167 T02830244 10300 20283 58004 $
KEYW 240453Z AUTO 08003KT 10SM CLR 28/25 A3004 RMK AO2 SLP172 T02830250 403220261 $

METAR Board
Radar Display
Forecast Discussion

FOR SITUATIONAL AWARENESS. NOT TO BE USED FOR FLIGHT PLANNING PURPOSES.